Flight Track Log - Related Links

Times and Time Zones

All times are in EDT time to prevent confusion due to time zone crossing. See the SWA2874 flight status page for this flight to view local times or setup timezone preferences in your user account.

Time Position Orientation Groundspeed Altitude Reporting Facility
EDT Latitude Longitude Course Direction KTS MPH feet Rate Location/Type
Fri 12:39:38 PM 36.1950 -95.9100 246° West 162 186 1,400  Level Kansas City Center
Fri 12:40:33 PM 36.1797 -95.9533 246° West 180 207 3,300 2,329 Climbing Kansas City Center
Fri 12:41:03 PM 36.1464 -95.9578 186° South 237 273 4,700 2,557 Climbing Kansas City Center
Fri 12:41:34 PM 36.1069 -95.9603 183° South 264 304 5,900 2,323 Climbing Kansas City Center
Fri 12:42:05 PM 36.0711 -95.9606 180° South 266 306 7,100 3,355 Climbing Kansas City Center
Fri 12:43:07 PM 35.9842 -95.9897 195° South 319 367 11,100 3,366 Climbing Kansas City Center
Fri 12:44:08 PM 35.8892 -96.0183 194° South 340 391 14,000 1,902 Climbing Kansas City Center
Fri 12:45:10 PM 35.7875 -96.0508 195° South 367 422 15,000 484 Climbing Kansas City Center
Fri 12:46:12 PM 35.6883 -96.0778 192° South 376 433 15,000 1,069 Level Kansas City Center
Fri 12:46:51 PM 35.6039 -96.1064 195° South 382 440 16,800 2,760 Climbing Fort Worth Center
Fri 12:47:52 PM 35.5000 -96.1386 194° South 382 440 19,600 2,850 Climbing Fort Worth Center
Fri 12:48:51 PM 35.3875 -96.1736 194° South 395 455 22,500 2,750 Climbing Fort Worth Center
Fri 12:49:52 PM 35.2775 -96.2056 193° South 406 467 25,100 2,281 Climbing Fort Worth Center
Fri 12:50:52 PM 35.1589 -96.2403 193° South 419 482 27,100 1,966 Climbing Fort Worth Center
Fri 12:51:51 PM 35.0361 -96.2775 194° South 436 502 29,000 1,765 Climbing Fort Worth Center
Fri 12:52:51 PM 34.9133 -96.3147 194° South 456 525 30,600 1,900 Climbing Fort Worth Center
Fri 12:53:51 PM 34.7886 -96.3542 195° South 466 536 32,800 2,350 Climbing Fort Worth Center
Fri 12:54:51 PM 34.6636 -96.3886 193° South 466 536 35,300 1,550 Climbing Fort Worth Center
Fri 12:55:51 PM 34.5431 -96.4253 194° South 460 529 35,900 1,190 Climbing Fort Worth Center
Fri 12:56:52 PM 34.4181 -96.4619 194° South 460 529 37,700 1,050 Climbing Fort Worth Center
Fri 12:57:51 PM 34.2994 -96.4958 193° South 449 517 38,000 151 Climbing Fort Worth Center
Fri 12:58:51 PM 34.1808 -96.5347 195° South 444 511 38,000  Level Fort Worth Center
Fri 12:59:52 PM 34.0619 -96.5686 193° South 438 504 38,000  Level Fort Worth Center
Fri 01:00:51 PM 33.9453 -96.6047 194° South 438 504 38,000  Level Fort Worth Center
Fri 01:01:51 PM 33.8328 -96.6333 192° South 431 496 38,000  Level Fort Worth Center
Fri 01:02:51 PM 33.7142 -96.6669 193° South 430 495 38,000  Level Fort Worth Center
Fri 01:03:51 PM 33.6078 -96.7000 195° South 438 504 38,000  Level Fort Worth Center
Fri 01:04:51 PM 33.4725 -96.7386 193° South 444 511 38,000  Level Fort Worth Center
Fri 01:05:52 PM 33.3639 -96.7569 188° South 444 511 38,000  Level Fort Worth Center
Fri 01:06:51 PM 33.2261 -96.7578 180° South 462 532 38,000 -101 Level Fort Worth Center
Fri 01:07:51 PM 33.1114 -96.7586 180° South 456 525 37,800 -500 Descending Fort Worth Center
Fri 01:08:51 PM 32.9694 -96.7597 180° South 456 525 37,000 -400 Descending Fort Worth Center
Fri 01:09:51 PM 32.8567 -96.7581 179° South 456 525 37,000  Level Fort Worth Center
Fri 01:10:51 PM 32.7253 -96.7567 179° South 451 519 37,000  Level Fort Worth Center
Fri 01:11:52 PM 32.6125 -96.7550 179° South 451 519 37,000  Level Fort Worth Center
Fri 01:12:51 PM 32.4747 -96.7558 180° South 451 519 37,000  Level Fort Worth Center
Fri 01:13:51 PM 32.3619 -96.7567 180° South 451 519 37,000  Level Fort Worth Center
Fri 01:14:52 PM 32.2472 -96.7550 179° South 451 519 37,000  Level Fort Worth Center
Fri 01:15:51 PM 32.1094 -96.7561 180° South 457 526 37,000  Level Fort Worth Center
Fri 01:16:51 PM 31.9842 -96.7544 179° South 452 520 37,000  Level Fort Worth Center
Fri 01:17:52 PM 31.8483 -96.7556 180° South 452 520 37,000  Level Fort Worth Center
Fri 01:19:38 PM 31.6453 -96.7553 180° South 449 517 37,000  Level Houston Center
Fri 01:20:40 PM 31.4958 -96.7558 180° South 455 524 37,000 -629 Level Houston Center
Fri 01:21:42 PM 31.3675 -96.7553 180° South 454 522 35,700 -2,371 Descending Houston Center
Fri 01:22:44 PM 31.2342 -96.7550 180° South 469 540 32,100 -3,242 Descending Houston Center
Fri 01:23:46 PM 31.0978 -96.7411 175° South 480 552 29,000 -2,784 Descending Houston Center
Fri 01:24:49 PM 30.9622 -96.7183 172° South 483 556 26,300 -2,256 Descending Houston Center
Fri 01:25:51 PM 30.8331 -96.6978 172° South 464 534 24,300 -2,032 Descending Houston Center
Fri 01:26:53 PM 30.7161 -96.6672 167° South 431 496 22,100 -2,274 Descending Houston Center
Fri 01:27:55 PM 30.6158 -96.5811 144° Southeast 446 513 19,600 -2,177 Descending Houston Center
Fri 01:28:57 PM 30.5053 -96.4806 142° Southeast 428 493 17,600 -1,935 Descending Houston Center
Fri 01:29:59 PM 30.4150 -96.3972 141° Southeast 414 476 15,600 -1,888 Descending Houston Center
Fri 01:30:26 PM 30.3808 -96.3675 143° Southeast 403 464 14,800 -2,000 Descending Houston Center
Fri 01:31:02 PM 30.3272 -96.3181 141° Southeast 401 461 13,500 -1,898 Descending Houston Center
Fri 01:32:04 PM 30.2433 -96.2406 141° Southeast 386 444 11,700 -1,210 Descending Houston Center
Fri 01:33:06 PM 30.1592 -96.1808 148° Southeast 357 411 11,000 -387 Descending Houston Center
Fri 01:34:08 PM 30.0775 -96.1375 155° Southeast 344 396 10,900 48 Descending Houston Center
Fri 01:35:12 PM 29.9706 -96.0803 155° Southeast 340 391 11,100  Climbing Houston Center
Fri 01:36:12 PM 29.8894 -96.0383 156° South 337 388 10,900 -49 Descending Houston Center
Fri 01:37:14 PM 29.8053 -95.9944 156° South 338 389 11,000 48 Climbing Houston Center
Fri 01:38:16 PM 29.7261 -95.9369 148° Southeast 339 390 11,000 -545 Level Houston Center
Fri 01:39:26 PM 29.6894 -95.8189 110° East 327 376 9,800 -1,152 Descending Houston Center
Fri 01:40:21 PM 29.6769 -95.7228 98° East 319 367 8,600 -1,231 Descending Houston Center
Fri 01:41:23 PM 29.6664 -95.6275 97° East 307 353 7,400 -774 Descending Houston Center
Fri 01:42:25 PM 29.6731 -95.5394 85° East 281 323 7,000 -484 Descending Houston Center
Fri 01:43:27 PM 29.6736 -95.4497 90° East 281 323 6,400 -488 Descending Houston Center
Fri 01:44:28 PM 29.6100 -95.3786 136° Southeast 284 327 6,000 -390 Descending Houston Center
Fri 01:45:30 PM 29.5544 -95.3228 139° Southeast 262 302 5,600 -683 Descending Houston Center
Fri 01:46:31 PM 29.5061 -95.2542 129° Southeast 244 281 4,600 -1,024 Descending Houston Center
Fri 01:47:33 PM 29.5281 -95.1964 354° North 201 231 3,500 -1,082 Descending Houston Center
Fri 01:48:00 PM 29.6333 -95.2667 354° North  Level FlightAware Approximate
Fri 01:48:33 PM 29.5717 -95.1911 North 163 188 2,400  Level Houston Center
Fri 01:49:35 PM 29.6028 -95.2306 312° West 158 182 1,300 -1,024 Descending Houston Center
Fri 01:50:36 PM 29.6283 -95.2586 316° Northwest 119 137 300 -984 Descending Houston Center

Login

Don't have an account? Register now (free) for customized features, flight alerts, and more!